Time;durP1;ratioP1;P1;durP2;ratioP2;P2;SDS_P1;SDS_P2;PMS_P1;PMS_P2;Temp;Humidity;BMP_temperature;BMP_pressure;BME280_temperature;BME280_humidity;BME280_pressure;Samples;Min_cycle;Max_cycle;Signal;HPM_P1;HPM_P2
2022/05/05 00:01:52;;;;;;;22.47;12.33;;;13.60;97.30;;;;;;5011434;28;20918;-78
2022/05/05 00:04:22;;;;;;;25.57;13.50;;;13.60;97.30;;;;;;5012830;28;20192;-78
2022/05/05 00:06:50;;;;;;;30.37;16.47;;;13.50;97.30;;;;;;5012147;28;20938;-78
2022/05/05 00:09:16;;;;;;;26.20;14.40;;;13.60;97.30;;;;;;5012620;28;20439;-79
2022/05/05 00:14:31;;;;;;;19.13;12.10;;;13.50;97.30;;;;;;5013008;28;20463;-78
2022/05/05 00:17:03;;;;;;;29.67;13.10;;;13.50;97.30;;;;;;5012275;28;20404;-80
2022/05/05 00:19:30;;;;;;;22.03;14.00;;;13.50;97.30;;;;;;5011351;28;20423;-78
2022/05/05 00:21:57;;;;;;;26.67;14.37;;;13.50;97.30;;;;;;5012435;28;20439;-78
2022/05/05 00:24:23;;;;;;;21.27;13.20;;;13.50;97.30;;;;;;5012059;28;20416;-78
2022/05/05 00:26:49;;;;;;;25.73;13.90;;;13.40;97.30;;;;;;5011079;28;20423;-80
2022/05/05 00:29:15;;;;;;;29.23;13.70;;;13.40;97.30;;;;;;5012624;28;20720;-78
2022/05/05 00:31:44;;;;;;;24.13;14.27;;;13.40;97.30;;;;;;5012105;28;20246;-78
2022/05/05 00:34:10;;;;;;;24.00;14.03;;;13.40;97.30;;;;;;5011005;28;20412;-78
2022/05/05 00:36:36;;;;;;;23.07;12.67;;;13.40;97.30;;;;;;5010363;28;20451;-78
2022/05/05 00:39:03;;;;;;;23.10;12.70;;;13.40;97.30;;;;;;5011022;28;20213;-79
2022/05/05 00:41:33;;;;;;;27.90;14.53;;;13.40;97.30;;;;;;5010739;28;20452;-78
2022/05/05 00:43:59;;;;;;;29.83;14.90;;;13.40;97.30;;;;;;5010268;28;20427;-78
2022/05/05 00:46:25;;;;;;;27.10;13.70;;;13.40;97.30;;;;;;5010580;28;20519;-75
2022/05/05 00:48:50;;;;;;;23.73;13.20;;;13.30;97.30;;;;;;5010348;28;20503;-75
2022/05/05 00:51:16;;;;;;;22.83;12.30;;;13.30;97.30;;;;;;5027056;28;20205;-75
2022/05/05 00:53:42;;;;;;;23.00;13.23;;;13.20;97.30;;;;;;5011522;28;20228;-74
2022/05/05 00:56:11;;;;;;;22.57;13.67;;;13.20;97.30;;;;;;5026654;28;20232;-74
2022/05/05 00:58:38;;;;;;;27.60;14.67;;;13.20;97.30;;;;;;5010268;28;20204;-74
2022/05/05 01:01:04;;;;;;;27.50;15.60;;;13.10;97.30;;;;;;5011841;28;20416;-74
2022/05/05 01:03:37;;;;;;;24.30;14.67;;;13.10;97.30;;;;;;5011767;28;20412;-74
2022/05/05 01:06:05;;;;;;;28.33;13.83;;;13.10;97.30;;;;;;5011429;28;20436;-74
2022/05/05 01:08:33;;;;;;;27.23;16.03;;;13.10;97.30;;;;;;5010370;28;20416;-75
2022/05/05 01:10:59;;;;;;;29.03;15.13;;;13.10;97.30;;;;;;5009938;28;20451;-74
2022/05/05 01:13:27;;;;;;;26.60;14.27;;;13.00;97.30;;;;;;5026525;28;20424;-75
2022/05/05 01:15:56;;;;;;;37.70;15.30;;;13.00;97.30;;;;;;5010221;28;20200;-74
2022/05/05 01:18:22;;;;;;;30.07;15.40;;;13.00;97.30;;;;;;5009507;28;20470;-74
2022/05/05 01:20:52;;;;;;;28.73;15.00;;;12.90;97.30;;;;;;5011086;28;20465;-72
2022/05/05 01:23:19;;;;;;;36.87;16.50;;;12.90;97.30;;;;;;5009559;28;20678;-72
2022/05/05 01:28:34;;;;;;;32.90;17.47;;;12.80;97.30;;;;;;5011083;28;20459;-72
2022/05/05 01:31:02;;;;;;;27.53;14.87;;;12.80;97.30;;;;;;5011310;28;20522;-72
2022/05/05 01:33:28;;;;;;;30.10;16.40;;;12.80;97.30;;;;;;5025789;28;20420;-72
2022/05/05 01:35:59;;;;;;;28.63;15.80;;;12.80;97.30;;;;;;5025380;28;20475;-72
2022/05/05 01:38:36;;;;;;;32.30;15.90;;;12.80;97.30;;;;;;5010741;28;20489;-73
2022/05/05 01:41:03;;;;;;;28.30;15.87;;;12.70;97.30;;;;;;5009319;28;20510;-72
2022/05/05 01:43:29;;;;;;;34.43;16.93;;;12.70;97.30;;;;;;5010930;28;20414;-72
2022/05/05 01:45:54;;;;;;;33.73;17.70;;;12.70;97.30;;;;;;5009341;28;20440;-72
2022/05/05 01:48:20;;;;;;;39.87;16.77;;;12.70;97.30;;;;;;5009085;28;20670;-72
2022/05/05 01:50:48;;;;;;;34.00;17.20;;;12.70;97.30;;;;;;5009294;28;20177;-72
2022/05/05 01:53:14;;;;;;;35.80;18.33;;;12.60;97.30;;;;;;5010370;28;20177;-72
2022/05/05 01:55:40;;;;;;;33.43;16.60;;;12.60;97.30;;;;;;5010736;28;20441;-72
2022/05/05 01:58:06;;;;;;;30.53;16.90;;;12.60;97.30;;;;;;5009081;28;20236;-72
2022/05/05 02:00:31;;;;;;;31.30;18.97;;;12.60;97.30;;;;;;5010281;28;20448;-72
2022/05/05 02:02:58;;;;;;;36.77;16.90;;;12.60;97.30;;;;;;5008720;28;20319;-72
2022/05/05 02:05:23;;;;;;;34.30;17.37;;;12.60;97.30;;;;;;5009106;28;20193;-72
2022/05/05 02:07:49;;;;;;;33.30;18.30;;;12.60;97.30;;;;;;5010241;28;20420;-72
2022/05/05 02:10:16;;;;;;;38.13;17.17;;;12.60;97.30;;;;;;5009089;28;20181;-72
2022/05/05 02:12:43;;;;;;;29.53;16.37;;;12.60;97.30;;;;;;5010067;28;20659;-72
2022/05/05 02:15:10;;;;;;;36.20;18.40;;;12.60;97.30;;;;;;5009856;28;20530;-72
2022/05/05 02:17:37;;;;;;;40.20;18.70;;;12.60;97.30;;;;;;5008477;28;21068;-72
2022/05/05 02:20:04;;;;;;;36.00;17.60;;;12.60;97.30;;;;;;5008977;28;20447;-72
2022/05/05 02:22:30;;;;;;;33.00;18.63;;;12.60;97.30;;;;;;5010041;28;20418;-72
2022/05/05 02:24:56;;;;;;;36.90;18.67;;;12.60;97.30;;;;;;5009611;28;20514;-71
2022/05/05 02:27:21;;;;;;;33.30;18.10;;;12.60;97.30;;;;;;5008749;28;20188;-72
2022/05/05 02:29:48;;;;;;;37.10;18.40;;;12.60;97.30;;;;;;5009799;28;20590;-72
2022/05/05 02:32:14;;;;;;;33.20;18.50;;;12.60;97.30;;;;;;5008508;28;20268;-72
2022/05/05 02:34:40;;;;;;;35.73;19.20;;;12.60;97.30;;;;;;5008188;28;20446;-71
2022/05/05 02:39:51;;;;;;;33.43;17.53;;;12.60;97.30;;;;;;5009794;28;20419;-71
2022/05/05 02:42:18;;;;;;;33.10;17.20;;;12.60;97.30;;;;;;5024817;28;20416;-72
2022/05/05 02:44:44;;;;;;;39.00;17.30;;;12.60;97.30;;;;;;5010057;28;20791;-74
2022/05/05 02:47:10;;;;;;;45.17;17.93;;;12.60;97.30;;;;;;5009353;28;20456;-72
2022/05/05 02:49:36;;;;;;;33.07;17.80;;;12.60;97.30;;;;;;5009312;28;20474;-71
2022/05/05 02:52:06;;;;;;;35.00;16.90;;;12.60;97.30;;;;;;5024895;28;20428;-72
2022/05/05 02:54:47;;;;;;;37.77;17.63;;;12.60;97.30;;;;;;5009294;28;20533;-72
2022/05/05 02:57:17;;;;;;;36.30;16.90;;;12.60;97.30;;;;;;5009548;28;20500;-72
2022/05/05 02:59:43;;;;;;;31.77;15.87;;;12.60;97.30;;;;;;5008066;28;20921;-72
2022/05/05 03:02:08;;;;;;;38.03;20.00;;;12.60;97.30;;;;;;5009391;28;20404;-72
2022/05/05 03:04:34;;;;;;;30.37;16.33;;;12.60;97.30;;;;;;5024496;28;20203;-72
2022/05/05 03:07:00;;;;;;;28.63;16.57;;;12.60;97.30;;;;;;5009457;28;20260;-71
2022/05/05 03:09:26;;;;;;;31.20;15.87;;;12.60;97.30;;;;;;5009031;28;20653;-71
2022/05/05 03:11:51;;;;;;;26.37;15.60;;;12.60;97.30;;;;;;5009327;28;20404;-71
2022/05/05 03:14:17;;;;;;;27.30;16.50;;;12.50;97.30;;;;;;5024142;28;20180;-72
2022/05/05 03:16:43;;;;;;;28.50;15.90;;;12.50;97.30;;;;;;5007994;28;20181;-72
2022/05/05 03:19:09;;;;;;;29.10;15.40;;;12.50;97.30;;;;;;5007816;28;20223;-71
2022/05/05 03:21:35;;;;;;;32.20;16.87;;;12.50;97.30;;;;;;5009171;28;20180;-72
2022/05/05 03:24:01;;;;;;;29.30;15.90;;;12.50;97.30;;;;;;5009610;28;20416;-71
2022/05/05 03:26:26;;;;;;;28.50;16.30;;;12.50;97.30;;;;;;5009178;28;20425;-71
2022/05/05 03:28:52;;;;;;;33.57;16.20;;;12.50;97.30;;;;;;5024280;28;20184;-71
2022/05/05 03:31:18;;;;;;;33.17;16.23;;;12.50;97.30;;;;;;5024263;28;20181;-72
2022/05/05 03:33:43;;;;;;;30.80;15.63;;;12.50;97.30;;;;;;5009311;28;20792;-71
2022/05/05 03:36:09;;;;;;;31.63;14.83;;;12.50;97.30;;;;;;5009336;28;20201;-72
2022/05/05 03:38:35;;;;;;;26.37;14.43;;;12.50;97.30;;;;;;5007854;28;20216;-72
2022/05/05 03:41:01;;;;;;;27.50;14.43;;;12.50;97.30;;;;;;5009282;28;20419;-71
2022/05/05 03:43:27;;;;;;;28.80;15.03;;;12.50;97.30;;;;;;5009090;28;20424;-72
2022/05/05 03:45:52;;;;;;;32.50;15.03;;;12.50;97.30;;;;;;5008021;28;20444;-71
2022/05/05 03:48:18;;;;;;;24.87;15.60;;;12.40;97.30;;;;;;5007926;28;20192;-72
2022/05/05 03:50:43;;;;;;;30.87;13.97;;;12.40;97.30;;;;;;5007862;28;20189;-72
2022/05/05 03:53:09;;;;;;;30.10;15.30;;;12.40;97.30;;;;;;5009134;28;20192;-71
2022/05/05 03:55:34;;;;;;;31.07;15.83;;;12.40;97.30;;;;;;5008939;28;20255;-71
2022/05/05 03:58:00;;;;;;;28.83;15.90;;;12.40;97.30;;;;;;5007563;28;20215;-72
2022/05/05 04:00:26;;;;;;;34.87;16.30;;;12.40;97.30;;;;;;5011813;28;20161;-72
2022/05/05 04:05:36;;;;;;;25.13;15.43;;;12.40;97.30;;;;;;5012323;28;20212;-71
2022/05/05 04:08:03;;;;;;;30.60;16.70;;;12.30;97.30;;;;;;5011135;28;20423;-71
2022/05/05 04:10:29;;;;;;;34.47;16.70;;;12.40;97.30;;;;;;5011233;28;20494;-72
2022/05/05 04:12:55;;;;;;;32.33;15.30;;;12.40;97.30;;;;;;5011001;28;20493;-72
2022/05/05 04:15:21;;;;;;;31.10;16.90;;;12.40;97.30;;;;;;5010854;28;20492;-72
2022/05/05 04:17:47;;;;;;;35.87;16.57;;;12.40;97.30;;;;;;5012106;28;20463;-72
2022/05/05 04:20:12;;;;;;;31.20;16.40;;;12.50;97.30;;;;;;5010866;28;20435;-71
2022/05/05 04:22:38;;;;;;;28.10;14.63;;;12.50;97.30;;;;;;5012208;28;20214;-72
2022/05/05 04:25:05;;;;;;;29.30;15.27;;;12.50;97.30;;;;;;5010792;28;20351;-72
2022/05/05 04:27:32;;;;;;;30.33;14.90;;;12.50;97.30;;;;;;5011325;28;20211;-72
2022/05/05 04:29:58;;;;;;;29.00;15.57;;;12.50;97.30;;;;;;5012245;28;20494;-72
2022/05/05 04:32:23;;;;;;;30.90;16.40;;;12.50;97.30;;;;;;5010935;28;20416;-72
2022/05/05 04:34:49;;;;;;;25.63;14.40;;;12.50;97.30;;;;;;5011844;28;20444;-72
2022/05/05 04:37:15;;;;;;;26.03;15.67;;;12.50;97.30;;;;;;5010364;28;20581;-72
2022/05/05 04:39:42;;;;;;;26.80;15.83;;;12.50;97.30;;;;;;5010391;28;20177;-73
2022/05/05 04:42:08;;;;;;;33.37;17.27;;;12.50;97.30;;;;;;5010553;28;20201;-72
2022/05/05 04:44:34;;;;;;;29.57;16.30;;;12.50;97.30;;;;;;5011390;28;20471;-73
2022/05/05 04:47:01;;;;;;;29.60;15.90;;;12.50;97.30;;;;;;5010531;28;20440;-72
2022/05/05 04:49:26;;;;;;;29.30;16.10;;;12.50;97.30;;;;;;5027003;28;20669;-72
2022/05/05 04:51:52;;;;;;;30.40;17.00;;;12.40;97.30;;;;;;5010262;28;20452;-76
2022/05/05 04:54:17;;;;;;;29.97;16.70;;;12.50;97.30;;;;;;5011441;28;20675;-74
2022/05/05 04:56:43;;;;;;;27.60;14.90;;;12.50;97.30;;;;;;5026515;28;20178;-74
2022/05/05 04:59:09;;;;;;;32.47;16.03;;;12.50;97.30;;;;;;5011582;28;20219;-75
2022/05/05 05:01:34;;;;;;;31.77;15.37;;;12.50;97.30;;;;;;5026773;28;20751;-75
2022/05/05 05:04:02;;;;;;;34.90;16.93;;;12.50;97.30;;;;;;5010440;28;20174;-75
2022/05/05 05:06:28;;;;;;;27.67;14.57;;;12.50;97.30;;;;;;5026616;28;20239;-75
2022/05/05 05:08:54;;;;;;;28.40;15.30;;;12.50;97.30;;;;;;5026741;28;20417;-75
2022/05/05 05:11:20;;;;;;;49.80;16.40;;;12.40;97.30;;;;;;5010452;28;20165;-75
2022/05/05 05:13:45;;;;;;;27.10;15.60;;;12.40;97.30;;;;;;5011612;28;20973;-75
2022/05/05 05:16:11;;;;;;;25.47;15.23;;;12.40;97.30;;;;;;5026576;28;20614;-74
2022/05/05 05:18:37;;;;;;;31.07;14.70;;;12.40;97.30;;;;;;5010281;28;20203;-75
2022/05/05 05:21:02;;;;;;;26.97;15.30;;;12.40;97.30;;;;;;5026545;28;20625;-75
2022/05/05 05:23:28;;;;;;;34.63;15.73;;;12.30;97.30;;;;;;5010379;28;20176;-75
2022/05/05 05:25:53;;;;;;;41.37;19.07;;;12.30;97.30;;;;;;5009872;28;20236;-75
2022/05/05 05:28:19;;;;;;;37.70;18.50;;;12.30;97.30;;;;;;5010353;28;20550;-75
2022/05/05 05:30:44;;;;;;;35.00;19.37;;;12.30;97.30;;;;;;5011169;28;20227;-75
2022/05/05 05:33:10;;;;;;;34.07;17.57;;;12.30;97.30;;;;;;5011150;28;20264;-75
2022/05/05 05:35:35;;;;;;;33.63;18.10;;;12.30;97.30;;;;;;5009571;28;20197;-75
2022/05/05 05:38:01;;;;;;;31.20;17.20;;;12.30;97.30;;;;;;5009445;28;20205;-74
2022/05/05 05:40:27;;;;;;;29.37;16.27;;;12.30;97.30;;;;;;5009405;28;20227;-74
2022/05/05 05:42:53;;;;;;;30.63;15.97;;;12.40;97.30;;;;;;5009503;28;20432;-75
2022/05/05 05:45:18;;;;;;;25.40;16.03;;;12.40;97.30;;;;;;5010624;28;20350;-75
2022/05/05 05:47:44;;;;;;;29.50;15.93;;;12.50;97.30;;;;;;5009624;28;20263;-75
2022/05/05 05:50:10;;;;;;;28.93;15.00;;;12.50;97.30;;;;;;5009241;28;20255;-75
2022/05/05 05:52:36;;;;;;;27.50;16.37;;;12.60;97.30;;;;;;5009111;28;20466;-74
2022/05/05 05:55:02;;;;;;;31.73;16.30;;;12.60;97.30;;;;;;5009034;28;20251;-74
2022/05/05 05:57:28;;;;;;;26.80;15.70;;;12.70;97.30;;;;;;5009043;28;20209;-75
2022/05/05 05:59:54;;;;;;;36.13;15.00;;;12.70;97.30;;;;;;5010426;28;20492;-74
2022/05/05 06:05:06;;;;;;;30.60;14.90;;;12.90;97.30;;;;;;5010802;28;20427;-75
2022/05/05 06:07:32;;;;;;;23.80;13.70;;;12.90;97.30;;;;;;5009020;28;20424;-74
2022/05/05 06:09:57;;;;;;;25.57;16.40;;;13.00;97.30;;;;;;5008975;28;20829;-74
2022/05/05 06:12:23;;;;;;;23.53;13.50;;;13.10;97.30;;;;;;5009056;28;20181;-74
2022/05/05 06:14:48;;;;;;;23.50;13.57;;;13.10;97.30;;;;;;5009424;28;20201;-74
2022/05/05 06:17:14;;;;;;;28.80;14.40;;;13.20;97.30;;;;;;5010360;28;20283;-75
2022/05/05 06:19:43;;;;;;;24.37;13.83;;;13.20;97.30;;;;;;5009029;28;20219;-74
2022/05/05 06:22:09;;;;;;;21.23;13.10;;;13.30;97.30;;;;;;5008694;28;20534;-74
2022/05/05 06:24:34;;;;;;;25.90;14.30;;;13.40;97.30;;;;;;5010097;28;20514;-75
2022/05/05 06:27:00;;;;;;;25.67;13.57;;;13.50;97.30;;;;;;5010088;28;20855;-75
2022/05/05 06:29:25;;;;;;;23.33;12.27;;;13.60;97.30;;;;;;5010088;28;20174;-74
2022/05/05 06:31:51;;;;;;;22.07;12.40;;;13.70;97.30;;;;;;5008523;28;20172;-75
2022/05/05 06:34:16;;;;;;;23.00;11.50;;;13.70;97.30;;;;;;5008768;28;20216;-74
2022/05/05 06:36:42;;;;;;;20.70;11.50;;;13.80;97.30;;;;;;5009685;28;20184;-75
2022/05/05 06:39:08;;;;;;;25.50;11.90;;;13.80;97.30;;;;;;5024984;28;20204;-74
2022/05/05 06:41:34;;;;;;;23.23;12.23;;;13.90;97.30;;;;;;5010204;28;20645;-75
2022/05/05 06:44:00;;;;;;;21.30;11.03;;;13.90;97.30;;;;;;5025001;28;20223;-75
2022/05/05 06:46:27;;;;;;;21.30;10.23;;;14.00;97.30;;;;;;5009453;28;20436;-74
2022/05/05 06:48:53;;;;;;;17.00;10.30;;;14.10;97.30;;;;;;5008517;28;20181;-75
2022/05/05 06:51:18;;;;;;;16.80;9.50;;;14.20;97.30;;;;;;5009856;28;20888;-75
2022/05/05 06:53:44;;;;;;;21.07;10.10;;;14.30;97.30;;;;;;5009920;28;20220;-75
2022/05/05 06:56:09;;;;;;;17.37;10.33;;;14.40;97.30;;;;;;5009615;28;20324;-75
2022/05/05 06:58:35;;;;;;;19.97;10.70;;;14.60;97.30;;;;;;5025420;28;20212;-74
2022/05/05 07:03:44;;;;;;;21.60;9.70;;;14.70;97.30;;;;;;5010257;28;20161;-74
2022/05/05 07:06:10;;;;;;;14.93;10.20;;;14.70;97.30;;;;;;5009795;28;20423;-74
2022/05/05 07:11:23;;;;;;;18.90;10.93;;;14.60;97.30;;;;;;5010363;28;20176;-74
2022/05/05 07:13:49;;;;;;;25.10;11.00;;;14.70;97.30;;;;;;5009861;28;20408;-74
2022/05/05 07:16:15;;;;;;;17.40;10.77;;;14.70;97.30;;;;;;5009615;28;20197;-74
2022/05/05 07:18:41;;;;;;;22.13;10.90;;;14.80;97.30;;;;;;5008512;28;20840;-74
2022/05/05 07:21:06;;;;;;;20.10;10.60;;;14.80;97.30;;;;;;5024761;28;20260;-74
2022/05/05 07:23:32;;;;;;;20.00;12.40;;;14.90;97.30;;;;;;5008438;28;20219;-75
2022/05/05 07:25:58;;;;;;;20.33;10.40;;;14.90;97.30;;;;;;5008370;28;20715;-75
2022/05/05 07:28:23;;;;;;;20.90;11.27;;;14.90;97.30;;;;;;5009930;28;20588;-75
2022/05/05 07:30:51;;;;;;;19.90;13.03;;;14.90;97.30;;;;;;5008375;28;20211;-75
2022/05/05 07:33:17;;;;;;;21.10;12.30;;;15.00;97.30;;;;;;5008336;28;20231;-75
2022/05/05 07:35:44;;;;;;;23.90;12.47;;;15.00;97.30;;;;;;5012141;28;20809;-75
2022/05/05 07:38:10;;;;;;;34.13;12.93;;;15.10;97.30;;;;;;5013355;28;20451;-74
2022/05/05 07:40:35;;;;;;;18.60;11.73;;;15.20;97.30;;;;;;5012243;28;20408;-75
2022/05/05 07:43:01;;;;;;;20.83;11.83;;;15.20;97.30;;;;;;5013398;28;20244;-74
2022/05/05 07:45:26;;;;;;;22.47;11.40;;;15.30;97.30;;;;;;5013243;28;20252;-74
2022/05/05 07:47:52;;;;;;;19.93;10.13;;;15.30;97.30;;;;;;5013323;28;20701;-74
2022/05/05 07:50:17;;;;;;;18.57;10.50;;;15.40;97.30;;;;;;5013129;28;20177;-74
2022/05/05 07:52:43;;;;;;;17.93;11.80;;;15.40;97.30;;;;;;5013356;28;20173;-75
2022/05/05 07:55:09;;;;;;;17.63;10.90;;;15.40;97.30;;;;;;5013089;28;20642;-75
2022/05/05 07:57:42;;;;;;;21.30;11.40;;;15.40;97.30;;;;;;5013668;28;20283;-75
2022/05/05 08:00:10;;;;;;;20.27;11.83;;;15.40;97.30;;;;;;5013246;28;20408;-75
2022/05/05 08:02:35;;;;;;;25.10;11.53;;;15.40;97.30;;;;;;5013093;28;20941;-75
2022/05/05 08:05:01;;;;;;;21.40;11.27;;;15.50;97.30;;;;;;5012999;28;20471;-75
2022/05/05 08:07:28;;;;;;;24.43;9.93;;;15.60;97.30;;;;;;5011863;28;20407;-75
2022/05/05 08:09:53;;;;;;;19.23;11.10;;;15.70;97.30;;;;;;5013020;28;20169;-75
2022/05/05 08:12:19;;;;;;;19.37;10.87;;;15.80;97.30;;;;;;5012737;28;20447;-75
2022/05/05 08:14:44;;;;;;;21.83;11.67;;;15.90;97.30;;;;;;5011361;28;20204;-75
2022/05/05 08:17:10;;;;;;;21.53;10.80;;;16.10;97.30;;;;;;5011328;28;20182;-75
2022/05/05 08:19:36;;;;;;;15.50;10.73;;;16.30;97.30;;;;;;5011330;28;20521;-74
2022/05/05 08:22:02;;;;;;;17.43;10.47;;;16.40;97.30;;;;;;5012665;28;20176;-76
2022/05/05 08:30:00;;;;;;;18.93;10.27;;;16.50;97.30;;;;;;5012905;28;20414;-75
2022/05/05 08:32:25;;;;;;;19.90;12.47;;;16.40;97.30;;;;;;5012634;28;20404;-74
2022/05/05 08:34:51;;;;;;;26.47;12.30;;;16.40;97.30;;;;;;5010976;28;20564;-75
2022/05/05 08:37:16;;;;;;;22.43;12.17;;;16.30;97.30;;;;;;5010824;28;20239;-75
2022/05/05 08:39:44;;;;;;;22.83;12.80;;;16.20;97.30;;;;;;5012462;28;20601;-74
2022/05/05 08:42:10;;;;;;;22.63;13.10;;;16.20;97.30;;;;;;5010923;28;20173;-75
2022/05/05 08:44:35;;;;;;;19.37;12.57;;;16.20;97.30;;;;;;5012070;28;20473;-75
2022/05/05 08:47:01;;;;;;;21.77;13.03;;;16.20;97.30;;;;;;5012746;28;20165;-75
2022/05/05 08:49:29;;;;;;;19.17;12.27;;;16.20;97.30;;;;;;5012048;28;20483;-75
2022/05/05 08:51:55;;;;;;;21.20;12.77;;;16.20;97.30;;;;;;5012059;28;20435;-75
2022/05/05 08:54:23;;;;;;;22.60;12.17;;;16.30;97.30;;;;;;5010566;28;20460;-75
2022/05/05 08:56:50;;;;;;;17.10;12.13;;;16.40;97.30;;;;;;5011175;28;20173;-74
2022/05/05 08:59:17;;;;;;;24.73;12.43;;;16.50;97.30;;;;;;5010579;28;20503;-74
2022/05/05 09:01:44;;;;;;;19.50;10.67;;;16.70;97.30;;;;;;5011958;28;20400;-74
2022/05/05 09:04:10;;;;;;;21.90;10.70;;;16.80;97.30;;;;;;5013763;28;20419;-80
2022/05/05 09:06:51;;;;;;;20.80;12.37;;;16.90;96.90;;;;;;5032287;28;20440;-81
2022/05/05 09:09:34;;;;;;;19.23;12.03;;;17.10;97.30;;;;;;5015052;28;20185;-80
2022/05/05 09:12:17;;;;;;;24.03;12.60;;;17.20;97.30;;;;;;5015903;28;20420;-79
2022/05/05 09:14:45;;;;;;;21.83;12.27;;;17.40;97.30;;;;;;5014804;28;20436;-80
2022/05/05 09:17:15;;;;;;;19.27;11.57;;;17.30;96.60;;;;;;5015751;28;20432;-81
2022/05/05 09:19:46;;;;;;;21.20;11.43;;;17.20;96.70;;;;;;5015331;28;20834;-80
2022/05/05 09:22:13;;;;;;;19.60;11.47;;;17.20;97.30;;;;;;5015089;28;20980;-80
2022/05/05 09:24:43;;;;;;;18.70;12.43;;;17.30;96.10;;;;;;5014911;28;20463;-80
2022/05/05 09:27:24;;;;;;;20.60;12.30;;;17.50;96.20;;;;;;5016365;28;20412;-80
2022/05/05 09:30:00;;;;;;;20.23;12.40;;;17.70;95.70;;;;;;5016453;28;20455;-81
2022/05/05 09:32:32;;;;;;;21.90;12.33;;;17.60;95.80;;;;;;5017296;28;20408;-80
2022/05/05 09:35:17;;;;;;;27.87;11.90;;;17.50;95.80;;;;;;5017093;28;20428;-81
2022/05/05 09:37:47;;;;;;;21.43;11.70;;;17.50;95.50;;;;;;5014407;28;20490;-80
2022/05/05 09:40:18;;;;;;;21.50;11.33;;;17.50;95.70;;;;;;5015013;28;20420;-80
2022/05/05 09:42:46;;;;;;;22.50;10.90;;;17.70;95.10;;;;;;5015617;28;20889;-81
2022/05/05 09:45:19;;;;;;;19.83;10.40;;;17.80;93.20;;;;;;5014455;28;20868;-80
2022/05/05 09:47:47;;;;;;;14.03;10.13;;;18.00;94.10;;;;;;5014860;28;20420;-81
2022/05/05 09:50:13;;;;;;;20.50;10.50;;;18.00;92.60;;;;;;5016228;28;20408;-81
2022/05/05 09:58:14;;;;;;;15.90;10.70;;;18.30;93.60;;;;;;5015645;28;20466;-81
2022/05/05 10:00:44;;;;;;;27.07;12.83;;;18.50;92.20;;;;;;5015255;28;20415;-80
2022/05/05 10:06:04;;;;;;;17.93;11.30;;;18.50;92.10;;;;;;5016046;28;20443;-80
2022/05/05 10:08:38;;;;;;;18.23;11.70;;;18.60;91.80;;;;;;5016349;28;20466;-80
2022/05/05 10:11:05;;;;;;;21.17;12.47;;;18.50;90.40;;;;;;5014861;28;20474;-81
2022/05/05 10:13:32;;;;;;;16.60;10.87;;;18.40;91.30;;;;;;5015068;28;20470;-79
2022/05/05 10:15:59;;;;;;;23.90;11.83;;;18.50;92.00;;;;;;5016329;28;20463;-80
2022/05/05 10:18:25;;;;;;;19.67;11.00;;;18.60;91.10;;;;;;5015598;28;20460;-80
2022/05/05 10:20:52;;;;;;;22.10;12.33;;;18.80;90.60;;;;;;5015205;28;20456;-79
2022/05/05 10:23:27;;;;;;;22.63;11.13;;;19.00;91.00;;;;;;5015007;28;20408;-81
2022/05/05 10:25:53;;;;;;;18.97;10.80;;;18.80;90.40;;;;;;5015794;28;20442;-80
2022/05/05 10:28:44;;;;;;;15.83;11.57;;;18.60;91.00;;;;;;5014902;28;20793;-80
2022/05/05 10:31:43;;;;;;;16.20;10.17;;;18.50;90.70;;;;;;5014282;28;20428;-80
2022/05/05 10:34:17;;;;;;;21.30;12.07;;;18.70;91.70;;;;;;5014726;28;20436;-80
2022/05/05 10:37:07;;;;;;;19.73;11.23;;;18.90;89.20;;;;;;5014850;28;20423;-80
2022/05/05 10:39:49;;;;;;;18.10;10.77;;;19.20;89.50;;;;;;5005593;28;20455;-80
2022/05/05 10:42:19;;;;;;;19.27;11.97;;;19.40;90.00;;;;;;5013940;28;20412;-81
2022/05/05 10:45:22;;;;;;;15.67;11.27;;;19.40;87.60;;;;;;5017116;28;20424;-80
2022/05/05 10:47:58;;;;;;;20.10;11.10;;;19.10;88.00;;;;;;5031526;28;20767;-81
2022/05/05 10:50:54;;;;;;;19.87;10.70;;;18.80;88.60;;;;;;5014305;28;20474;-81
2022/05/05 10:53:28;;;;;;;21.17;11.40;;;18.60;87.90;;;;;;5016100;28;20416;-80
2022/05/05 10:55:55;;;;;;;23.20;10.90;;;18.70;88.40;;;;;;5014349;28;20453;-80
2022/05/05 10:58:58;;;;;;;17.47;10.30;;;18.90;88.30;;;;;;5015141;28;20826;-81
2022/05/05 11:01:26;;;;;;;16.80;11.30;;;18.90;86.70;;;;;;5031889;28;20457;-81
2022/05/05 11:04:15;;;;;;;15.83;9.63;;;18.90;86.70;;;;;;5013996;28;20927;-80
2022/05/05 11:06:45;;;;;;;14.43;9.53;;;19.20;85.80;;;;;;5012121;28;20820;-74
2022/05/05 11:09:34;;;;;;;15.73;9.07;;;19.50;85.30;;;;;;5009812;28;20403;-74
2022/05/05 11:12:16;;;;;;;16.87;9.80;;;19.80;84.30;;;;;;5013911;28;20404;-74
2022/05/05 11:23:21;;;;;;;15.77;10.80;;;20.40;82.70;;;;;;5014143;28;20956;-75
2022/05/05 11:25:48;;;;;;;21.03;11.67;;;20.40;81.80;;;;;;5013801;28;20442;-74
2022/05/05 11:28:14;;;;;;;19.83;12.03;;;20.40;81.60;;;;;;5012363;28;20575;-74
2022/05/05 11:30:42;;;;;;;18.97;11.40;;;20.40;82.30;;;;;;5012139;28;20423;-74
2022/05/05 11:33:07;;;;;;;21.07;11.50;;;20.40;79.90;;;;;;5028778;28;20416;-74
2022/05/05 11:35:33;;;;;;;17.53;10.37;;;20.60;80.50;;;;;;5028500;28;20443;-74
2022/05/05 11:37:59;;;;;;;16.40;12.03;;;20.70;80.50;;;;;;5011902;28;20224;-72
2022/05/05 11:40:25;;;;;;;20.43;11.57;;;20.70;80.90;;;;;;5028242;28;20177;-74
2022/05/05 11:45:35;;;;;;;17.93;11.27;;;20.70;81.90;;;;;;5013403;28;20801;-73
2022/05/05 11:48:17;;;;;;;23.10;12.87;;;20.60;82.50;;;;;;5013266;28;20491;-72
2022/05/05 11:50:47;;;;;;;24.57;11.83;;;20.30;82.80;;;;;;5011671;28;20181;-73
2022/05/05 11:53:17;;;;;;;18.67;11.00;;;20.10;83.00;;;;;;5011578;28;20416;-73
2022/05/05 11:55:46;;;;;;;17.13;10.20;;;20.20;82.50;;;;;;5011773;28;20448;-73
2022/05/05 12:01:36;;;;;;;18.30;10.83;;;20.30;83.10;;;;;;5013096;28;20825;-73
2022/05/05 12:03:59;;;;;;;16.70;10.10;;;20.40;80.40;;;;;;5013231;28;20447;-76
2022/05/05 12:06:29;;;;;;;20.33;10.57;;;20.10;80.80;;;;;;5011774;28;20440;-75
2022/05/05 12:08:59;;;;;;;18.40;9.67;;;20.10;81.00;;;;;;5011584;28;20521;-76
2022/05/05 12:11:28;;;;;;;14.13;10.07;;;20.30;81.30;;;;;;5012509;28;20420;-75
2022/05/05 12:14:09;;;;;;;19.00;9.80;;;20.50;79.30;;;;;;5013064;28;20466;-76
2022/05/05 12:16:36;;;;;;;20.27;10.00;;;20.50;80.40;;;;;;5011537;28;20878;-76
2022/05/05 12:19:12;;;;;;;23.40;10.03;;;20.50;79.30;;;;;;5013097;28;20463;-75
2022/05/05 12:21:49;;;;;;;19.13;11.07;;;20.40;80.20;;;;;;5010725;28;20408;-75
2022/05/05 12:24:15;;;;;;;17.60;9.83;;;20.40;80.30;;;;;;5011216;28;20495;-76
2022/05/05 12:26:41;;;;;;;30.20;12.23;;;20.20;80.70;;;;;;5011064;28;20499;-76
2022/05/05 12:29:14;;;;;;;22.67;11.90;;;20.00;80.60;;;;;;5010883;28;20280;-75
2022/05/05 12:31:59;;;;;;;16.93;10.20;;;19.90;80.40;;;;;;5010826;28;20185;-75
2022/05/05 12:34:27;;;;;;;16.17;10.30;;;20.00;81.50;;;;;;5012036;28;20427;-75
2022/05/05 12:37:08;;;;;;;23.27;11.30;;;20.10;81.70;;;;;;5011973;28;20424;-75
2022/05/05 12:39:34;;;;;;;15.87;10.37;;;20.10;80.30;;;;;;5012268;28;20412;-75
2022/05/05 12:42:00;;;;;;;19.70;10.37;;;20.00;80.20;;;;;;5012013;28;20459;-76
2022/05/05 12:44:32;;;;;;;20.83;10.67;;;19.80;79.30;;;;;;5010682;28;20223;-76
2022/05/05 12:47:05;;;;;;;16.17;10.10;;;19.70;79.40;;;;;;5012008;28;20578;-76
2022/05/05 12:49:44;;;;;;;16.17;10.40;;;19.60;80.60;;;;;;5010682;28;20467;-75
2022/05/05 13:00:23;;;;;;;18.43;10.17;;;19.40;81.80;;;;;;5012165;28;20775;-76
2022/05/05 13:02:48;;;;;;;17.93;9.83;;;19.60;79.90;;;;;;5010453;28;20420;-76
2022/05/05 13:05:15;;;;;;;13.30;8.23;;;19.60;78.20;;;;;;5010577;28;20207;-76
2022/05/05 13:07:41;;;;;;;17.30;9.60;;;19.70;78.30;;;;;;5012159;28;20195;-76
2022/05/05 13:10:07;;;;;;;17.97;9.67;;;19.80;78.60;;;;;;5013500;28;20426;-81
2022/05/05 13:12:32;;;;;;;13.20;8.67;;;20.00;78.30;;;;;;5016766;28;20419;-80
2022/05/05 13:14:58;;;;;;;20.00;9.30;;;20.00;79.00;;;;;;5017873;28;20815;-80
2022/05/05 13:17:23;;;;;;;14.50;8.37;;;20.10;78.60;;;;;;5017081;28;20181;-80
2022/05/05 13:19:49;;;;;;;15.60;9.00;;;20.10;79.00;;;;;;5016119;28;20270;-80
2022/05/05 13:22:14;;;;;;;15.20;8.90;;;20.10;77.70;;;;;;5015712;28;20216;-80
2022/05/05 13:24:40;;;;;;;17.80;8.43;;;20.50;77.20;;;;;;5017035;28;20682;-80
2022/05/05 13:27:06;;;;;;;13.40;7.60;;;20.80;76.70;;;;;;5015437;28;20632;-79
2022/05/05 13:29:31;;;;;;;10.43;5.80;;;21.10;73.70;;;;;;5015877;28;20181;-80